Terminal Aerodrome Forecast
Issued by NWS Mt. Holly, NJ

Home | Current Version | Previous Version | Text Only | Print | Product List | Glossary On
Versions: 1 2 3 4 5 6 7 8 9 10 11 12 13 14 15 16 17 18 19
000
FTUS41 KPHI 262321
TAFILG
TAF
KILG 262321Z 2700/2724 VRB03KT P6SM BKN025
      TEMPO 2700/2701 SCT025
     FM270100 VRB03KT P6SM SCT025
      TEMPO 2706/2708 3SM BR BKN010
     FM270800 VRB03KT 3SM BR OVC010
     FM271400 14006KT P6SM BKN025
     FM271600 16010KT P6SM SCT035=

USA.gov is the U.S. government's official web portal to all federal, state and local government web resources and services.